sensor_id;sensor_type;location;lat;lon;timestamp;temperature;humidity
35563;DHT22;21665;40.108;18.302;2023-07-09T04:26:39;21.30;99.90
35563;DHT22;21665;40.108;18.302;2023-07-09T04:29:09;21.40;99.90
35563;DHT22;21665;40.108;18.302;2023-07-09T04:31:37;21.40;99.90
35563;DHT22;21665;40.108;18.302;2023-07-09T04:37:12;21.70;99.90
35563;DHT22;21665;40.108;18.302;2023-07-09T04:39:44;21.90;99.90
35563;DHT22;21665;40.108;18.302;2023-07-09T04:42:17;22.10;99.90
35563;DHT22;21665;40.108;18.302;2023-07-09T04:45:09;22.40;99.90
35563;DHT22;21665;40.108;18.302;2023-07-09T04:55:04;23.90;99.90
35563;DHT22;21665;40.108;18.302;2023-07-09T04:58:15;25.40;99.90
35563;DHT22;21665;40.108;18.302;2023-07-09T05:14:55;29.80;99.90
35563;DHT22;21665;40.108;18.302;2023-07-09T05:33:53;31.90;99.90
35563;DHT22;21665;40.108;18.302;2023-07-09T08:58:59;32.30;99.90
35563;DHT22;21665;40.108;18.302;2023-07-09T09:01:51;32.70;99.90
35563;DHT22;21665;40.108;18.302;2023-07-09T09:04:24;32.80;99.90
35563;DHT22;21665;40.108;18.302;2023-07-09T09:07:00;32.50;99.90
35563;DHT22;21665;40.108;18.302;2023-07-09T09:09:54;33.00;99.90
35563;DHT22;21665;40.108;18.302;2023-07-09T09:12:38;33.20;99.90
35563;DHT22;21665;40.108;18.302;2023-07-09T09:15:14;32.80;99.90
35563;DHT22;21665;40.108;18.302;2023-07-09T09:17:41;32.60;99.90
35563;DHT22;21665;40.108;18.302;2023-07-09T09:20:20;32.60;99.90
35563;DHT22;21665;40.108;18.302;2023-07-09T09:25:40;32.80;99.90
35563;DHT22;21665;40.108;18.302;2023-07-09T09:28:08;32.40;99.90
35563;DHT22;21665;40.108;18.302;2023-07-09T09:30:34;32.40;99.90
35563;DHT22;21665;40.108;18.302;2023-07-09T09:33:06;32.40;99.90
35563;DHT22;21665;40.108;18.302;2023-07-09T09:35:41;32.40;99.90
35563;DHT22;21665;40.108;18.302;2023-07-09T09:38:17;32.30;99.90
35563;DHT22;21665;40.108;18.302;2023-07-09T09:40:44;32.30;99.90
35563;DHT22;21665;40.108;18.302;2023-07-09T09:43:19;32.10;99.90
35563;DHT22;21665;40.108;18.302;2023-07-09T09:45:49;32.10;99.90
35563;DHT22;21665;40.108;18.302;2023-07-09T09:48:30;32.30;99.90
35563;DHT22;21665;40.108;18.302;2023-07-09T09:50:58;31.90;99.90
35563;DHT22;21665;40.108;18.302;2023-07-09T09:53:29;32.10;99.90
35563;DHT22;21665;40.108;18.302;2023-07-09T09:55:57;32.00;99.90
35563;DHT22;21665;40.108;18.302;2023-07-09T09:58:28;32.00;99.90
35563;DHT22;21665;40.108;18.302;2023-07-09T10:00:57;31.90;99.90
35563;DHT22;21665;40.108;18.302;2023-07-09T10:03:34;31.70;99.90
35563;DHT22;21665;40.108;18.302;2023-07-09T10:06:07;31.70;99.90
35563;DHT22;21665;40.108;18.302;2023-07-09T10:17:04;31.50;99.90
35563;DHT22;21665;40.108;18.302;2023-07-09T10:29:05;31.50;99.90
35563;DHT22;21665;40.108;18.302;2023-07-09T10:31:50;31.40;99.90
35563;DHT22;21665;40.108;18.302;2023-07-09T10:34:49;31.70;99.90
35563;DHT22;21665;40.108;18.302;2023-07-09T10:40:14;31.80;99.90
35563;DHT22;21665;40.108;18.302;2023-07-09T10:42:54;31.80;99.90
35563;DHT22;21665;40.108;18.302;2023-07-09T10:45:44;31.60;99.90
35563;DHT22;21665;40.108;18.302;2023-07-09T10:48:27;31.00;99.90
35563;DHT22;21665;40.108;18.302;2023-07-09T10:50:57;31.20;99.90
35563;DHT22;21665;40.108;18.302;2023-07-09T10:53:47;31.60;99.90
35563;DHT22;21665;40.108;18.302;2023-07-09T10:56:19;31.90;99.90
35563;DHT22;21665;40.108;18.302;2023-07-09T11:01:43;31.90;99.90
35563;DHT22;21665;40.108;18.302;2023-07-09T11:04:36;32.00;99.90
35563;DHT22;21665;40.108;18.302;2023-07-09T11:07:13;32.00;99.90
35563;DHT22;21665;40.108;18.302;2023-07-09T11:09:45;31.70;99.90
35563;DHT22;21665;40.108;18.302;2023-07-09T11:12:19;31.70;99.90
35563;DHT22;21665;40.108;18.302;2023-07-09T11:14:58;31.70;99.90
35563;DHT22;21665;40.108;18.302;2023-07-09T11:17:27;31.50;99.90
35563;DHT22;21665;40.108;18.302;2023-07-09T11:19:56;31.60;99.90
35563;DHT22;21665;40.108;18.302;2023-07-09T11:22:35;31.60;99.90
35563;DHT22;21665;40.108;18.302;2023-07-09T11:25:14;31.50;99.90
35563;DHT22;21665;40.108;18.302;2023-07-09T11:27:52;31.50;99.90
35563;DHT22;21665;40.108;18.302;2023-07-09T11:30:25;31.70;99.90
35563;DHT22;21665;40.108;18.302;2023-07-09T11:32:57;31.80;99.90
35563;DHT22;21665;40.108;18.302;2023-07-09T11:35:41;31.60;99.90
35563;DHT22;21665;40.108;18.302;2023-07-09T11:38:20;31.80;99.90
35563;DHT22;21665;40.108;18.302;2023-07-09T11:40:52;31.90;99.90
35563;DHT22;21665;40.108;18.302;2023-07-09T11:43:34;31.70;99.90
35563;DHT22;21665;40.108;18.302;2023-07-09T11:46:24;31.70;99.90
35563;DHT22;21665;40.108;18.302;2023-07-09T11:48:54;31.70;99.90
35563;DHT22;21665;40.108;18.302;2023-07-09T11:51:45;31.80;99.90
35563;DHT22;21665;40.108;18.302;2023-07-09T11:54:13;32.00;99.90
35563;DHT22;21665;40.108;18.302;2023-07-09T11:56:39;32.10;99.90
35563;DHT22;21665;40.108;18.302;2023-07-09T11:59:07;32.00;99.90
35563;DHT22;21665;40.108;18.302;2023-07-09T12:01:46;31.70;99.90
35563;DHT22;21665;40.108;18.302;2023-07-09T12:04:16;31.20;99.90
35563;DHT22;21665;40.108;18.302;2023-07-09T12:06:52;30.80;99.90
35563;DHT22;21665;40.108;18.302;2023-07-09T12:09:32;30.80;99.90
35563;DHT22;21665;40.108;18.302;2023-07-09T12:11:58;30.90;99.90
35563;DHT22;21665;40.108;18.302;2023-07-09T12:14:25;31.10;99.90
35563;DHT22;21665;40.108;18.302;2023-07-09T12:16:54;31.40;99.90
35563;DHT22;21665;40.108;18.302;2023-07-09T12:19:30;31.80;99.90
35563;DHT22;21665;40.108;18.302;2023-07-09T12:21:58;31.60;99.90
35563;DHT22;21665;40.108;18.302;2023-07-09T12:24:27;31.70;99.90
35563;DHT22;21665;40.108;18.302;2023-07-09T12:27:02;32.10;99.90
35563;DHT22;21665;40.108;18.302;2023-07-09T12:29:31;31.70;99.90
35563;DHT22;21665;40.108;18.302;2023-07-09T12:32:09;31.40;99.90
35563;DHT22;21665;40.108;18.302;2023-07-09T12:34:36;31.30;99.90
35563;DHT22;21665;40.108;18.302;2023-07-09T12:37:03;31.30;99.90
35563;DHT22;21665;40.108;18.302;2023-07-09T12:39:32;31.50;99.90
35563;DHT22;21665;40.108;18.302;2023-07-09T12:42:01;31.20;99.90
35563;DHT22;21665;40.108;18.302;2023-07-09T12:44:33;31.30;99.90
35563;DHT22;21665;40.108;18.302;2023-07-09T12:47:02;31.20;99.90
35563;DHT22;21665;40.108;18.302;2023-07-09T12:49:36;31.00;99.90
35563;DHT22;21665;40.108;18.302;2023-07-09T12:52:19;31.00;99.90
35563;DHT22;21665;40.108;18.302;2023-07-09T12:55:01;30.80;99.90
35563;DHT22;21665;40.108;18.302;2023-07-09T12:57:29;31.10;99.90
35563;DHT22;21665;40.108;18.302;2023-07-09T12:59:56;31.10;99.90
35563;DHT22;21665;40.108;18.302;2023-07-09T13:02:24;30.90;99.90
35563;DHT22;21665;40.108;18.302;2023-07-09T13:05:02;30.90;99.90
35563;DHT22;21665;40.108;18.302;2023-07-09T13:07:38;31.20;99.90
35563;DHT22;21665;40.108;18.302;2023-07-09T13:10:15;31.10;99.90
35563;DHT22;21665;40.108;18.302;2023-07-09T13:12:55;31.00;99.90
35563;DHT22;21665;40.108;18.302;2023-07-09T13:15:47;31.10;99.90
35563;DHT22;21665;40.108;18.302;2023-07-09T13:18:16;31.00;99.90
35563;DHT22;21665;40.108;18.302;2023-07-09T13:20:44;31.00;99.90
35563;DHT22;21665;40.108;18.302;2023-07-09T13:23:16;31.30;99.90
35563;DHT22;21665;40.108;18.302;2023-07-09T13:25:44;31.70;99.90
35563;DHT22;21665;40.108;18.302;2023-07-09T13:28:28;31.50;99.90
35563;DHT22;21665;40.108;18.302;2023-07-09T13:30:58;31.00;99.90
35563;DHT22;21665;40.108;18.302;2023-07-09T13:33:26;30.80;99.90
35563;DHT22;21665;40.108;18.302;2023-07-09T13:35:53;30.80;99.90
35563;DHT22;21665;40.108;18.302;2023-07-09T13:38:22;30.60;99.90
35563;DHT22;21665;40.108;18.302;2023-07-09T13:40:59;30.60;99.90
35563;DHT22;21665;40.108;18.302;2023-07-09T13:43:32;30.70;99.90
35563;DHT22;21665;40.108;18.302;2023-07-09T13:46:00;30.80;99.90
35563;DHT22;21665;40.108;18.302;2023-07-09T13:48:31;31.00;99.90
35563;DHT22;21665;40.108;18.302;2023-07-09T13:50:58;31.10;99.90
35563;DHT22;21665;40.108;18.302;2023-07-09T13:53:31;31.10;99.90
35563;DHT22;21665;40.108;18.302;2023-07-09T13:55:58;30.70;99.90
35563;DHT22;21665;40.108;18.302;2023-07-09T13:58:26;30.80;99.90
35563;DHT22;21665;40.108;18.302;2023-07-09T14:00:59;30.80;99.90
35563;DHT22;21665;40.108;18.302;2023-07-09T14:03:32;30.90;99.90
35563;DHT22;21665;40.108;18.302;2023-07-09T14:06:00;31.10;99.90
35563;DHT22;21665;40.108;18.302;2023-07-09T14:08:26;30.70;99.90
35563;DHT22;21665;40.108;18.302;2023-07-09T14:10:55;30.70;99.90
35563;DHT22;21665;40.108;18.302;2023-07-09T14:13:23;30.50;99.90
35563;DHT22;21665;40.108;18.302;2023-07-09T14:15:49;30.50;99.90
35563;DHT22;21665;40.108;18.302;2023-07-09T14:18:22;30.50;99.90
35563;DHT22;21665;40.108;18.302;2023-07-09T14:20:50;30.60;99.90
35563;DHT22;21665;40.108;18.302;2023-07-09T14:23:17;30.70;99.90
35563;DHT22;21665;40.108;18.302;2023-07-09T14:25:45;30.90;99.90
35563;DHT22;21665;40.108;18.302;2023-07-09T14:28:15;30.60;99.90
35563;DHT22;21665;40.108;18.302;2023-07-09T14:30:43;30.30;99.90
35563;DHT22;21665;40.108;18.302;2023-07-09T14:33:17;30.30;99.90
35563;DHT22;21665;40.108;18.302;2023-07-09T14:35:45;30.40;99.90
35563;DHT22;21665;40.108;18.302;2023-07-09T14:38:25;30.60;99.90
35563;DHT22;21665;40.108;18.302;2023-07-09T14:40:56;30.60;99.90
35563;DHT22;21665;40.108;18.302;2023-07-09T14:43:25;30.30;99.90
35563;DHT22;21665;40.108;18.302;2023-07-09T14:45:52;30.50;99.90
35563;DHT22;21665;40.108;18.302;2023-07-09T14:48:20;30.50;99.90
35563;DHT22;21665;40.108;18.302;2023-07-09T14:50:47;30.30;99.90
35563;DHT22;21665;40.108;18.302;2023-07-09T14:53:25;30.40;99.90
35563;DHT22;21665;40.108;18.302;2023-07-09T14:55:53;30.20;99.90
35563;DHT22;21665;40.108;18.302;2023-07-09T14:58:23;30.30;99.90
35563;DHT22;21665;40.108;18.302;2023-07-09T15:00:50;30.50;99.90
35563;DHT22;21665;40.108;18.302;2023-07-09T15:03:22;30.50;99.90
35563;DHT22;21665;40.108;18.302;2023-07-09T15:05:50;30.20;99.90
35563;DHT22;21665;40.108;18.302;2023-07-09T15:08:20;30.30;99.90
35563;DHT22;21665;40.108;18.302;2023-07-09T15:10:53;30.10;99.90
35563;DHT22;21665;40.108;18.302;2023-07-09T15:13:33;30.20;99.90
35563;DHT22;21665;40.108;18.302;2023-07-09T15:16:01;30.40;99.90
35563;DHT22;21665;40.108;18.302;2023-07-09T15:18:31;30.50;99.90
35563;DHT22;21665;40.108;18.302;2023-07-09T15:21:03;30.20;99.90
35563;DHT22;21665;40.108;18.302;2023-07-09T15:23:30;30.20;99.90
35563;DHT22;21665;40.108;18.302;2023-07-09T15:26:01;30.20;99.90
35563;DHT22;21665;40.108;18.302;2023-07-09T15:28:28;30.40;99.90
35563;DHT22;21665;40.108;18.302;2023-07-09T15:30:54;30.60;99.90
35563;DHT22;21665;40.108;18.302;2023-07-09T15:33:21;30.40;99.90
35563;DHT22;21665;40.108;18.302;2023-07-09T15:35:49;30.10;99.90
35563;DHT22;21665;40.108;18.302;2023-07-09T15:38:27;30.20;99.90
35563;DHT22;21665;40.108;18.302;2023-07-09T15:40:57;30.10;99.90
35563;DHT22;21665;40.108;18.302;2023-07-09T15:43:25;30.10;99.90
35563;DHT22;21665;40.108;18.302;2023-07-09T15:45:54;29.90;99.90
35563;DHT22;21665;40.108;18.302;2023-07-09T15:50:56;29.70;99.90
35563;DHT22;21665;40.108;18.302;2023-07-09T15:53:23;29.80;99.90
35563;DHT22;21665;40.108;18.302;2023-07-09T15:55:52;29.70;99.90
35563;DHT22;21665;40.108;18.302;2023-07-09T15:58:41;29.70;99.90
35563;DHT22;21665;40.108;18.302;2023-07-09T16:01:13;29.80;99.90
35563;DHT22;21665;40.108;18.302;2023-07-09T16:03:51;29.50;99.90
35563;DHT22;21665;40.108;18.302;2023-07-09T16:06:18;29.40;99.90
35563;DHT22;21665;40.108;18.302;2023-07-09T16:08:45;29.50;99.90
35563;DHT22;21665;40.108;18.302;2023-07-09T16:11:23;29.50;99.90
35563;DHT22;21665;40.108;18.302;2023-07-09T16:13:51;29.60;99.90
35563;DHT22;21665;40.108;18.302;2023-07-09T16:16:23;29.10;99.90
35563;DHT22;21665;40.108;18.302;2023-07-09T16:18:50;29.20;99.90
35563;DHT22;21665;40.108;18.302;2023-07-09T16:21:26;28.90;99.90
35563;DHT22;21665;40.108;18.302;2023-07-09T16:23:54;29.00;99.90
35563;DHT22;21665;40.108;18.302;2023-07-09T16:26:21;29.10;99.90
35563;DHT22;21665;40.108;18.302;2023-07-09T16:28:48;29.10;99.90
35563;DHT22;21665;40.108;18.302;2023-07-09T16:31:18;29.10;99.90
35563;DHT22;21665;40.108;18.302;2023-07-09T16:33:44;28.90;99.90
35563;DHT22;21665;40.108;18.302;2023-07-09T16:36:14;29.00;99.90
35563;DHT22;21665;40.108;18.302;2023-07-09T16:38:41;29.00;99.90
35563;DHT22;21665;40.108;18.302;2023-07-09T16:41:11;28.90;99.90
35563;DHT22;21665;40.108;18.302;2023-07-09T16:43:43;28.90;99.90
35563;DHT22;21665;40.108;18.302;2023-07-09T16:46:21;28.80;99.90
35563;DHT22;21665;40.108;18.302;2023-07-09T16:48:50;28.80;99.90
35563;DHT22;21665;40.108;18.302;2023-07-09T16:51:25;28.70;99.90
35563;DHT22;21665;40.108;18.302;2023-07-09T16:53:52;28.60;99.90
35563;DHT22;21665;40.108;18.302;2023-07-09T16:56:19;28.40;99.90
35563;DHT22;21665;40.108;18.302;2023-07-09T16:58:47;28.40;99.90
35563;DHT22;21665;40.108;18.302;2023-07-09T17:01:13;28.20;99.90
35563;DHT22;21665;40.108;18.302;2023-07-09T17:03:40;28.20;99.90
35563;DHT22;21665;40.108;18.302;2023-07-09T17:06:08;28.20;99.90
35563;DHT22;21665;40.108;18.302;2023-07-09T17:08:34;28.00;99.90
35563;DHT22;21665;40.108;18.302;2023-07-09T17:11:02;27.90;99.90
35563;DHT22;21665;40.108;18.302;2023-07-09T17:13:29;27.90;99.90
35563;DHT22;21665;40.108;18.302;2023-07-09T17:15:56;27.80;99.90
35563;DHT22;21665;40.108;18.302;2023-07-09T17:18:25;27.90;99.90
35563;DHT22;21665;40.108;18.302;2023-07-09T17:20:56;27.90;99.90
35563;DHT22;21665;40.108;18.302;2023-07-09T17:23:24;27.90;99.90
35563;DHT22;21665;40.108;18.302;2023-07-09T17:25:54;27.80;99.90
35563;DHT22;21665;40.108;18.302;2023-07-09T17:28:24;27.80;99.90
35563;DHT22;21665;40.108;18.302;2023-07-09T17:30:51;27.70;99.90
35563;DHT22;21665;40.108;18.302;2023-07-09T17:33:19;27.70;99.90
35563;DHT22;21665;40.108;18.302;2023-07-09T17:35:48;27.60;99.90
35563;DHT22;21665;40.108;18.302;2023-07-09T17:40:47;27.20;99.90
35563;DHT22;21665;40.108;18.302;2023-07-09T17:43:24;27.30;99.90
35563;DHT22;21665;40.108;18.302;2023-07-09T17:45:52;27.10;99.90
35563;DHT22;21665;40.108;18.302;2023-07-09T17:48:27;27.00;99.90
35563;DHT22;21665;40.108;18.302;2023-07-09T17:50:56;27.10;99.90
35563;DHT22;21665;40.108;18.302;2023-07-09T17:53:32;27.00;99.90
35563;DHT22;21665;40.108;18.302;2023-07-09T17:55:59;26.90;99.90
35563;DHT22;21665;40.108;18.302;2023-07-09T17:58:34;26.80;99.90
35563;DHT22;21665;40.108;18.302;2023-07-09T18:01:05;26.80;99.90
35563;DHT22;21665;40.108;18.302;2023-07-09T18:03:31;26.70;99.90
35563;DHT22;21665;40.108;18.302;2023-07-09T18:05:58;26.70;99.90
35563;DHT22;21665;40.108;18.302;2023-07-09T18:08:24;26.60;99.90
35563;DHT22;21665;40.108;18.302;2023-07-09T18:10:53;26.70;99.90
35563;DHT22;21665;40.108;18.302;2023-07-09T18:13:22;26.60;99.90
35563;DHT22;21665;40.108;18.302;2023-07-09T18:15:51;26.50;99.90
35563;DHT22;21665;40.108;18.302;2023-07-09T18:18:19;26.60;99.90
35563;DHT22;21665;40.108;18.302;2023-07-09T18:20:49;26.40;99.90
35563;DHT22;21665;40.108;18.302;2023-07-09T18:23:16;26.40;99.90
35563;DHT22;21665;40.108;18.302;2023-07-09T18:25:44;26.20;99.90
35563;DHT22;21665;40.108;18.302;2023-07-09T18:28:24;26.20;99.90
35563;DHT22;21665;40.108;18.302;2023-07-09T18:30:53;26.10;99.90
35563;DHT22;21665;40.108;18.302;2023-07-09T18:33:19;26.00;99.90
35563;DHT22;21665;40.108;18.302;2023-07-09T18:35:46;25.90;99.90
35563;DHT22;21665;40.108;18.302;2023-07-09T18:38:12;25.90;99.90
35563;DHT22;21665;40.108;18.302;2023-07-09T18:40:43;25.90;99.90
35563;DHT22;21665;40.108;18.302;2023-07-09T18:43:16;25.80;99.90
35563;DHT22;21665;40.108;18.302;2023-07-09T18:45:44;25.80;99.90
35563;DHT22;21665;40.108;18.302;2023-07-09T18:48:20;25.80;99.90
35563;DHT22;21665;40.108;18.302;2023-07-09T18:50:52;25.70;99.90
35563;DHT22;21665;40.108;18.302;2023-07-09T18:53:22;25.70;99.90
35563;DHT22;21665;40.108;18.302;2023-07-09T18:55:50;25.60;99.90
35563;DHT22;21665;40.108;18.302;2023-07-09T18:58:38;25.60;99.90
35563;DHT22;21665;40.108;18.302;2023-07-09T19:01:18;25.60;99.90
35563;DHT22;21665;40.108;18.302;2023-07-09T19:03:47;25.60;99.90
35563;DHT22;21665;40.108;18.302;2023-07-09T19:06:17;25.60;99.90
35563;DHT22;21665;40.108;18.302;2023-07-09T19:08:43;25.50;99.90
35563;DHT22;21665;40.108;18.302;2023-07-09T19:11:10;25.40;99.90
35563;DHT22;21665;40.108;18.302;2023-07-09T19:13:36;25.20;99.90
35563;DHT22;21665;40.108;18.302;2023-07-09T19:16:03;25.10;99.90
35563;DHT22;21665;40.108;18.302;2023-07-09T19:18:34;25.00;99.90
35563;DHT22;21665;40.108;18.302;2023-07-09T19:21:04;25.00;99.90
35563;DHT22;21665;40.108;18.302;2023-07-09T19:23:31;24.90;99.90
35563;DHT22;21665;40.108;18.302;2023-07-09T19:25:58;24.80;99.90
35563;DHT22;21665;40.108;18.302;2023-07-09T19:28:24;24.70;99.90
35563;DHT22;21665;40.108;18.302;2023-07-09T19:30:52;24.70;99.90
35563;DHT22;21665;40.108;18.302;2023-07-09T19:33:23;24.70;99.90
35563;DHT22;21665;40.108;18.302;2023-07-09T19:35:50;24.60;99.90
35563;DHT22;21665;40.108;18.302;2023-07-09T19:38:16;24.50;99.90
35563;DHT22;21665;40.108;18.302;2023-07-09T19:40:45;24.50;99.90
35563;DHT22;21665;40.108;18.302;2023-07-09T19:43:12;24.40;99.90
35563;DHT22;21665;40.108;18.302;2023-07-09T19:45:44;24.40;99.90
35563;DHT22;21665;40.108;18.302;2023-07-09T19:48:17;24.30;99.90
35563;DHT22;21665;40.108;18.302;2023-07-09T19:50:44;24.30;99.90
35563;DHT22;21665;40.108;18.302;2023-07-09T19:53:19;24.20;99.90
35563;DHT22;21665;40.108;18.302;2023-07-09T19:55:46;24.20;99.90
35563;DHT22;21665;40.108;18.302;2023-07-09T19:58:13;24.10;99.90
35563;DHT22;21665;40.108;18.302;2023-07-09T20:00:39;24.00;99.90
35563;DHT22;21665;40.108;18.302;2023-07-09T20:03:26;24.00;99.90
35563;DHT22;21665;40.108;18.302;2023-07-09T20:05:53;24.00;99.90
35563;DHT22;21665;40.108;18.302;2023-07-09T20:08:20;23.90;99.90
35563;DHT22;21665;40.108;18.302;2023-07-09T20:10:52;23.90;99.90
35563;DHT22;21665;40.108;18.302;2023-07-09T20:13:26;23.90;99.90
35563;DHT22;21665;40.108;18.302;2023-07-09T20:15:54;23.90;99.90
35563;DHT22;21665;40.108;18.302;2023-07-09T20:18:22;23.90;99.90
35563;DHT22;21665;40.108;18.302;2023-07-09T20:20:54;23.90;99.90
35563;DHT22;21665;40.108;18.302;2023-07-09T20:23:22;23.90;99.90
35563;DHT22;21665;40.108;18.302;2023-07-09T20:25:49;23.90;99.90
35563;DHT22;21665;40.108;18.302;2023-07-09T20:28:24;23.90;99.90
35563;DHT22;21665;40.108;18.302;2023-07-09T20:30:52;23.80;99.90
35563;DHT22;21665;40.108;18.302;2023-07-09T20:33:23;23.90;99.90
35563;DHT22;21665;40.108;18.302;2023-07-09T20:35:50;23.90;99.90
35563;DHT22;21665;40.108;18.302;2023-07-09T20:38:23;23.80;99.90
35563;DHT22;21665;40.108;18.302;2023-07-09T20:40:51;23.80;99.90
35563;DHT22;21665;40.108;18.302;2023-07-09T20:43:26;23.80;99.90
35563;DHT22;21665;40.108;18.302;2023-07-09T20:45:53;23.70;99.90
35563;DHT22;21665;40.108;18.302;2023-07-09T20:48:21;23.70;99.90
35563;DHT22;21665;40.108;18.302;2023-07-09T20:50:50;23.70;99.90
35563;DHT22;21665;40.108;18.302;2023-07-09T20:53:18;23.70;99.90
35563;DHT22;21665;40.108;18.302;2023-07-09T20:55:47;23.70;99.90
35563;DHT22;21665;40.108;18.302;2023-07-09T20:58:22;23.70;99.90
35563;DHT22;21665;40.108;18.302;2023-07-09T21:00:51;23.60;99.90
35563;DHT22;21665;40.108;18.302;2023-07-09T21:03:20;23.60;99.90
35563;DHT22;21665;40.108;18.302;2023-07-09T21:05:48;23.60;99.90
35563;DHT22;21665;40.108;18.302;2023-07-09T21:08:18;23.60;99.90
35563;DHT22;21665;40.108;18.302;2023-07-09T21:10:46;23.60;99.90
35563;DHT22;21665;40.108;18.302;2023-07-09T21:13:19;23.60;99.90
35563;DHT22;21665;40.108;18.302;2023-07-09T21:15:51;23.60;99.90
35563;DHT22;21665;40.108;18.302;2023-07-09T21:18:20;23.50;99.90
35563;DHT22;21665;40.108;18.302;2023-07-09T21:20:48;23.60;99.90
35563;DHT22;21665;40.108;18.302;2023-07-09T21:23:18;23.50;99.90
35563;DHT22;21665;40.108;18.302;2023-07-09T21:25:48;23.50;99.90
35563;DHT22;21665;40.108;18.302;2023-07-09T21:28:15;23.50;99.90
35563;DHT22;21665;40.108;18.302;2023-07-09T21:30:43;23.50;99.90
35563;DHT22;21665;40.108;18.302;2023-07-09T21:33:15;23.50;99.90
35563;DHT22;21665;40.108;18.302;2023-07-09T21:35:46;23.50;99.90
35563;DHT22;21665;40.108;18.302;2023-07-09T21:38:19;23.50;99.90
35563;DHT22;21665;40.108;18.302;2023-07-09T21:40:48;23.50;99.90
35563;DHT22;21665;40.108;18.302;2023-07-09T21:43:15;23.50;99.90
35563;DHT22;21665;40.108;18.302;2023-07-09T21:45:43;23.40;99.90
35563;DHT22;21665;40.108;18.302;2023-07-09T21:48:16;23.40;99.90
35563;DHT22;21665;40.108;18.302;2023-07-09T21:50:45;23.40;99.90
35563;DHT22;21665;40.108;18.302;2023-07-09T21:53:19;23.40;99.90
35563;DHT22;21665;40.108;18.302;2023-07-09T21:55:47;23.40;99.90
35563;DHT22;21665;40.108;18.302;2023-07-09T21:58:14;23.40;99.90
35563;DHT22;21665;40.108;18.302;2023-07-09T22:00:42;23.40;99.90
35563;DHT22;21665;40.108;18.302;2023-07-09T22:03:12;23.30;99.90
35563;DHT22;21665;40.108;18.302;2023-07-09T22:05:39;23.30;99.90
35563;DHT22;21665;40.108;18.302;2023-07-09T22:08:18;23.30;99.90
35563;DHT22;21665;40.108;18.302;2023-07-09T22:10:46;23.30;99.90
35563;DHT22;21665;40.108;18.302;2023-07-09T22:13:15;23.30;99.90
35563;DHT22;21665;40.108;18.302;2023-07-09T22:15:43;23.20;99.90
35563;DHT22;21665;40.108;18.302;2023-07-09T22:18:14;23.20;99.90
35563;DHT22;21665;40.108;18.302;2023-07-09T22:20:42;23.20;99.90
35563;DHT22;21665;40.108;18.302;2023-07-09T22:23:20;23.10;99.90
35563;DHT22;21665;40.108;18.302;2023-07-09T22:25:48;23.10;99.90
35563;DHT22;21665;40.108;18.302;2023-07-09T22:28:16;23.10;99.90
35563;DHT22;21665;40.108;18.302;2023-07-09T22:30:47;23.10;99.90
35563;DHT22;21665;40.108;18.302;2023-07-09T22:33:17;23.10;99.90
35563;DHT22;21665;40.108;18.302;2023-07-09T22:35:47;23.10;99.90
35563;DHT22;21665;40.108;18.302;2023-07-09T22:38:23;23.10;99.90
35563;DHT22;21665;40.108;18.302;2023-07-09T22:40:50;23.10;99.90
35563;DHT22;21665;40.108;18.302;2023-07-09T22:43:17;23.10;99.90
35563;DHT22;21665;40.108;18.302;2023-07-09T22:45:48;23.10;99.90
35563;DHT22;21665;40.108;18.302;2023-07-09T22:48:18;23.10;99.90
35563;DHT22;21665;40.108;18.302;2023-07-09T22:50:46;23.10;99.90
35563;DHT22;21665;40.108;18.302;2023-07-09T22:53:15;23.10;99.90
35563;DHT22;21665;40.108;18.302;2023-07-09T22:55:44;23.10;99.90
35563;DHT22;21665;40.108;18.302;2023-07-09T22:58:17;23.10;99.90
35563;DHT22;21665;40.108;18.302;2023-07-09T23:00:57;23.10;99.90
35563;DHT22;21665;40.108;18.302;2023-07-09T23:03:38;22.90;99.90
35563;DHT22;21665;40.108;18.302;2023-07-09T23:06:16;22.90;99.90
35563;DHT22;21665;40.108;18.302;2023-07-09T23:08:44;22.90;99.90
35563;DHT22;21665;40.108;18.302;2023-07-09T23:11:13;22.90;99.90
35563;DHT22;21665;40.108;18.302;2023-07-09T23:13:40;22.80;99.90
35563;DHT22;21665;40.108;18.302;2023-07-09T23:16:13;22.80;99.90
35563;DHT22;21665;40.108;18.302;2023-07-09T23:18:40;22.80;99.90
35563;DHT22;21665;40.108;18.302;2023-07-09T23:21:19;22.80;99.90
35563;DHT22;21665;40.108;18.302;2023-07-09T23:23:48;22.80;99.90
35563;DHT22;21665;40.108;18.302;2023-07-09T23:26:15;22.70;99.90
35563;DHT22;21665;40.108;18.302;2023-07-09T23:28:42;22.70;99.90
35563;DHT22;21665;40.108;18.302;2023-07-09T23:31:27;22.80;99.90
35563;DHT22;21665;40.108;18.302;2023-07-09T23:33:55;22.70;99.90
35563;DHT22;21665;40.108;18.302;2023-07-09T23:36:23;22.60;99.90
35563;DHT22;21665;40.108;18.302;2023-07-09T23:38:50;22.60;99.90
35563;DHT22;21665;40.108;18.302;2023-07-09T23:41:28;22.60;99.90
35563;DHT22;21665;40.108;18.302;2023-07-09T23:43:56;22.60;99.90
35563;DHT22;21665;40.108;18.302;2023-07-09T23:46:37;22.50;99.90
35563;DHT22;21665;40.108;18.302;2023-07-09T23:49:06;22.50;99.90
35563;DHT22;21665;40.108;18.302;2023-07-09T23:51:33;22.40;99.90
35563;DHT22;21665;40.108;18.302;2023-07-09T23:54:00;22.40;99.90
35563;DHT22;21665;40.108;18.302;2023-07-09T23:56:34;22.40;99.90
35563;DHT22;21665;40.108;18.302;2023-07-09T23:59:02;22.40;99.90
